Time;durP1;ratioP1;P1;durP2;ratioP2;P2;SDS_P1;SDS_P2;PMS_P1;PMS_P2;Temp;Humidity;BMP_temperature;BMP_pressure;BME280_temperature;BME280_humidity;BME280_pressure;Samples;Min_cycle;Max_cycle;Signal;HPM_P1;HPM_P2
2022/12/16 00:01:28;;;;;;;10.87;5.40;;;-6.50;99.90;;;-5.72;100.00;97195.41;4998204;28;20490;-82
2022/12/16 00:03:59;;;;;;;8.77;4.80;;;-6.30;99.90;;;-5.72;100.00;97195.41;5003796;28;20467;-82
2022/12/16 00:06:34;;;;;;;8.00;3.90;;;-6.30;99.90;;;-5.67;100.00;97195.91;4998806;28;21071;-82
2022/12/16 00:09:04;;;;;;;7.60;4.50;;;-6.30;99.90;;;-5.70;100.00;97196.13;4995878;28;20462;-82
2022/12/16 00:11:34;;;;;;;10.27;5.33;;;-6.40;99.90;;;-5.71;100.00;97196.22;4995581;28;21084;-82
2022/12/16 00:14:04;;;;;;;8.50;4.37;;;-6.40;99.90;;;-5.67;100.00;97198.44;4998941;28;21453;-81
2022/12/16 00:16:33;;;;;;;10.53;4.90;;;-6.30;99.90;;;-5.66;100.00;97194.19;4995073;28;20553;-82
2022/12/16 00:19:03;;;;;;;7.13;4.20;;;-6.30;99.90;;;-5.65;100.00;97194.06;5005043;28;20948;-82
2022/12/16 00:21:35;;;;;;;6.20;4.50;;;-6.30;99.90;;;-5.66;100.00;97196.72;5000938;28;21008;-82
2022/12/16 00:24:05;;;;;;;8.57;4.97;;;-6.30;99.90;;;-5.68;100.00;97201.09;5001889;28;20802;-82
2022/12/16 00:26:34;;;;;;;9.63;4.83;;;-6.30;99.90;;;-5.65;100.00;97205.97;5001240;28;20949;-82
2022/12/16 00:29:04;;;;;;;8.00;4.30;;;-6.30;99.90;;;-5.71;100.00;97196.22;5002192;28;20914;-82
2022/12/16 00:31:34;;;;;;;6.10;4.23;;;-6.40;99.90;;;-5.71;100.00;97199.59;5001690;28;20550;-81
2022/12/16 00:34:04;;;;;;;12.03;4.10;;;-6.40;99.90;;;-5.70;100.00;97203.75;5002055;28;20908;-82
2022/12/16 00:36:34;;;;;;;8.50;4.80;;;-6.30;99.90;;;-5.71;100.00;97202.13;5002343;28;20441;-82
2022/12/16 00:39:05;;;;;;;9.30;4.30;;;-6.30;99.90;;;-5.70;100.00;97198.66;5002206;28;20468;-82
2022/12/16 00:41:34;;;;;;;5.73;3.57;;;-6.40;99.90;;;-5.70;100.00;97198.66;5001709;28;20464;-82
2022/12/16 00:44:03;;;;;;;8.10;5.23;;;-6.20;99.90;;;-5.68;100.00;97206.19;5002353;28;20440;-82
2022/12/16 00:46:33;;;;;;;6.73;3.37;;;-6.20;99.90;;;-5.70;100.00;97203.75;5002974;28;20561;-83
2022/12/16 00:49:01;;;;;;;6.80;4.10;;;-6.20;99.90;;;-5.71;100.00;97207.22;4998639;28;20801;-82
2022/12/16 00:51:30;;;;;;;7.73;4.60;;;-6.30;99.90;;;-5.72;100.00;97213.22;4998235;28;20472;-81
2022/12/16 00:54:02;;;;;;;9.33;4.83;;;-6.30;99.90;;;-5.73;100.00;97195.53;5003721;28;20846;-82
2022/12/16 00:56:32;;;;;;;9.30;5.07;;;-6.30;99.90;;;-5.72;100.00;97200.50;5000058;28;20463;-82
2022/12/16 00:59:01;;;;;;;8.93;5.60;;;-6.40;99.90;;;-5.72;100.00;97208.13;5002007;28;20900;-82
2022/12/16 01:01:30;;;;;;;9.23;5.10;;;-6.30;99.90;;;-5.71;100.00;97211.50;5000609;28;20463;-82
2022/12/16 01:04:00;;;;;;;10.27;5.17;;;-6.30;99.90;;;-5.82;100.00;97217.34;5000973;28;20463;-82
2022/12/16 01:06:29;;;;;;;8.20;4.20;;;-6.40;99.90;;;-5.83;100.00;97215.69;5002814;28;20676;-82
2022/12/16 01:08:58;;;;;;;7.90;4.10;;;-6.50;99.90;;;-5.79;100.00;97217.13;5002754;28;20555;-82
2022/12/16 01:11:29;;;;;;;10.23;5.27;;;-6.40;99.90;;;-5.84;100.00;97226.81;4999425;28;20479;-83
2022/12/16 01:13:59;;;;;;;10.27;4.67;;;-6.50;99.90;;;-5.85;100.00;97224.38;4999745;28;20500;-82
2022/12/16 01:16:28;;;;;;;10.87;4.53;;;-6.60;99.90;;;-5.83;100.00;97232.72;5000545;28;20818;-82
2022/12/16 01:18:57;;;;;;;7.23;4.20;;;-6.50;99.90;;;-5.80;100.00;97233.31;5002648;28;21006;-82
2022/12/16 01:21:27;;;;;;;5.20;3.40;;;-6.50;99.90;;;-5.82;100.00;97232.59;5002400;28;20823;-82
2022/12/16 01:23:58;;;;;;;7.47;4.00;;;-6.50;99.90;;;-5.82;100.00;97229.25;5000887;28;20869;-82
2022/12/16 01:26:28;;;;;;;9.67;4.00;;;-6.50;99.90;;;-5.83;100.00;97238.59;5001281;28;20959;-81
2022/12/16 01:28:59;;;;;;;8.17;4.00;;;-6.50;99.90;;;-5.80;100.00;97242.69;4998832;28;20463;-82
2022/12/16 01:31:30;;;;;;;9.70;4.37;;;-6.40;99.90;;;-5.84;100.00;97241.28;4999363;28;20476;-82
2022/12/16 01:33:59;;;;;;;6.50;4.30;;;-6.40;99.90;;;-5.82;100.00;97245.31;4999200;28;20458;-82
2022/12/16 01:36:29;;;;;;;10.20;5.33;;;-6.20;99.90;;;-5.87;100.00;97244.88;5003249;28;20485;-82
2022/12/16 01:38:59;;;;;;;7.73;4.97;;;-6.40;99.90;;;-5.88;100.00;97250.06;5000898;28;20499;-81
2022/12/16 01:41:30;;;;;;;7.57;4.27;;;-6.40;99.90;;;-5.94;100.00;97253.03;5002254;28;20531;-81
2022/12/16 01:44:16;;;;;;;9.23;4.80;;;-6.60;99.90;;;-5.92;100.00;97257.09;5002296;28;20465;-81
2022/12/16 01:46:51;;;;;;;8.37;4.13;;;-6.50;99.90;;;-5.94;100.00;97258.94;4999672;28;20499;-83
2022/12/16 01:49:28;;;;;;;9.57;5.00;;;-6.50;99.90;;;-5.96;100.00;97262.47;5002776;28;20849;-83
2022/12/16 01:52:04;;;;;;;8.63;4.50;;;-6.60;99.90;;;-5.98;100.00;97254.97;5000377;28;20462;-82
2022/12/16 01:54:42;;;;;;;6.87;3.93;;;-6.60;99.90;;;-5.96;100.00;97258.22;4999352;28;20570;-82
2022/12/16 01:57:21;;;;;;;9.73;4.97;;;-6.60;99.90;;;-5.96;100.00;97257.41;5001302;28;20473;-82
2022/12/16 01:59:55;;;;;;;8.00;4.20;;;-6.50;99.90;;;-5.97;100.00;97266.75;4999884;28;20551;-82
2022/12/16 02:02:25;;;;;;;10.10;4.70;;;-6.60;99.90;;;-6.00;100.00;97261.88;5001835;28;20507;-81
2022/12/16 02:07:43;;;;;;;6.00;4.13;;;-6.70;99.90;;;-6.12;100.00;97263.53;5001683;28;20965;-82
2022/12/16 02:10:13;;;;;;;8.33;5.10;;;-6.80;99.90;;;-6.10;100.00;97260.88;5000944;28;20565;-81
2022/12/16 02:12:55;;;;;;;5.83;4.80;;;-6.80;99.90;;;-6.10;100.00;97265.97;5000315;28;20928;-82
2022/12/16 02:15:42;;;;;;;10.97;5.40;;;-6.80;99.90;;;-6.11;100.00;97264.38;5001292;28;20476;-82
2022/12/16 02:18:26;;;;;;;9.03;4.50;;;-6.60;99.90;;;-6.14;100.00;97264.53;4998705;28;20464;-82
2022/12/16 02:21:35;;;;;;;7.10;4.00;;;-6.70;99.90;;;-6.14;100.00;97260.28;4998809;28;20447;-81
2022/12/16 02:24:50;;;;;;;9.53;4.47;;;-6.70;99.90;;;-6.14;100.00;97260.28;5001601;28;20525;-81
2022/12/16 02:27:55;;;;;;;9.70;4.87;;;-6.70;99.90;;;-6.13;100.00;97266.19;4995870;28;20871;-82
2022/12/16 02:30:51;;;;;;;7.87;4.27;;;-6.70;99.90;;;-6.16;100.00;97257.03;4998973;28;21282;-82
2022/12/16 02:33:45;;;;;;;6.80;4.60;;;-6.80;99.90;;;-6.24;100.00;97258.44;4997493;28;20529;-82
2022/12/16 02:36:32;;;;;;;8.57;3.30;;;-6.90;99.90;;;-6.27;100.00;97253.56;5000043;28;20498;-82
2022/12/16 02:39:11;;;;;;;8.70;5.20;;;-6.90;99.90;;;-6.23;100.00;97257.53;4999389;28;20445;-82
2022/12/16 02:41:51;;;;;;;8.73;5.03;;;-6.80;99.90;;;-6.24;100.00;97249.09;5000413;28;20467;-82
2022/12/16 02:44:24;;;;;;;4.47;3.53;;;-6.80;99.90;;;-6.32;100.00;97255.63;5001167;28;20552;-82
2022/12/16 02:46:56;;;;;;;5.90;4.50;;;-7.00;99.90;;;-6.26;100.00;97253.47;4999245;28;20563;-82
2022/12/16 02:50:04;;;;;;;5.30;3.60;;;-6.90;99.90;;;-6.29;100.00;97260.50;4997386;28;20936;-82
2022/12/16 02:52:35;;;;;;;8.70;4.57;;;-6.90;99.90;;;-6.31;100.00;97267.41;5001792;28;20933;-81
2022/12/16 02:55:10;;;;;;;11.37;5.10;;;-6.80;99.90;;;-6.36;100.00;97270.28;4999266;28;20501;-81
2022/12/16 02:58:04;;;;;;;7.57;3.67;;;-6.90;99.90;;;-6.42;100.00;97270.66;4998032;28;20825;-82
2022/12/16 03:00:51;;;;;;;8.20;4.33;;;-7.10;99.90;;;-6.40;100.00;97271.41;5000215;28;20919;-82
2022/12/16 03:03:30;;;;;;;6.27;3.87;;;-7.00;99.90;;;-6.43;100.00;97278.41;4998726;28;20474;-82
2022/12/16 03:06:02;;;;;;;7.80;3.80;;;-7.00;99.90;;;-6.43;100.00;97273.31;5000264;28;21092;-81
2022/12/16 03:08:39;;;;;;;7.10;4.17;;;-6.90;99.90;;;-6.42;100.00;97269.88;5001412;28;20468;-82
2022/12/16 03:11:09;;;;;;;7.73;3.13;;;-7.00;99.90;;;-6.49;100.00;97268.66;4998995;28;20494;-82
2022/12/16 03:13:44;;;;;;;6.30;3.90;;;-7.00;99.90;;;-6.50;100.00;97261.94;4998563;28;20443;-82
2022/12/16 03:16:19;;;;;;;6.13;3.60;;;-6.90;99.90;;;-6.48;100.00;97267.72;4998148;28;20501;-82
2022/12/16 03:18:56;;;;;;;7.40;3.83;;;-7.00;99.90;;;-6.49;100.00;97268.66;5000251;28;20477;-82
2022/12/16 03:21:33;;;;;;;9.53;4.00;;;-7.00;99.90;;;-6.50;100.00;97272.09;4997786;28;22806;-82
2022/12/16 03:24:09;;;;;;;8.90;4.47;;;-7.20;99.90;;;-6.53;100.00;97273.13;4999942;28;21070;-82
2022/12/16 03:26:48;;;;;;;7.10;3.40;;;-7.20;99.90;;;-6.50;100.00;97278.00;4998023;28;20446;-82
2022/12/16 03:29:31;;;;;;;6.57;4.17;;;-7.10;99.90;;;-6.52;100.00;97279.81;4998030;28;20466;-82
2022/12/16 03:32:09;;;;;;;6.23;3.17;;;-7.10;99.90;;;-6.50;100.00;97277.19;4998137;28;20461;-82
2022/12/16 03:34:49;;;;;;;5.17;3.20;;;-7.10;99.90;;;-6.49;100.00;97276.28;4999270;28;20459;-82
2022/12/16 03:37:24;;;;;;;3.90;3.33;;;-7.00;99.90;;;-6.52;100.00;97286.63;5000514;28;20592;-81
2022/12/16 03:40:01;;;;;;;11.87;5.00;;;-7.10;99.90;;;-6.55;100.00;97284.28;4998488;28;20520;-83
2022/12/16 03:42:32;;;;;;;6.17;3.63;;;-7.00;99.90;;;-6.58;100.00;97276.88;4997930;28;20469;-82
2022/12/16 03:45:02;;;;;;;4.20;3.27;;;-7.10;99.90;;;-6.60;100.00;97283.78;5031278;28;20976;-81
2022/12/16 03:47:31;;;;;;;4.87;3.07;;;-7.10;99.90;;;-6.65;100.00;97286.63;4999974;28;20668;-81
2022/12/16 03:50:03;;;;;;;7.73;3.83;;;-7.20;99.90;;;-6.68;100.00;97284.28;4999002;28;20478;-81
2022/12/16 03:52:32;;;;;;;7.88;3.47;;;-7.30;99.90;;;-6.66;100.00;97293.44;5000385;28;20470;-82
2022/12/16 03:55:02;;;;;;;5.50;3.80;;;-7.30;99.90;;;-6.59;100.00;97282.88;4995586;28;20223;-82
2022/12/16 03:57:31;;;;;;;3.73;2.80;;;-7.10;99.90;;;-6.62;100.00;97294.03;4997986;28;21267;-82
2022/12/16 04:00:01;;;;;;;5.20;3.30;;;-7.20;99.90;;;-6.62;100.00;97297.41;4997618;28;20898;-82
2022/12/16 04:02:32;;;;;;;3.80;3.20;;;-7.20;99.90;;;-6.63;100.00;97303.38;5001837;28;20569;-82
2022/12/16 04:05:02;;;;;;;7.33;3.57;;;-7.20;99.90;;;-6.64;100.00;97296.69;4999986;28;21041;-82
2022/12/16 04:07:32;;;;;;;8.33;3.27;;;-7.10;99.90;;;-6.60;100.00;97309.22;4999992;28;20961;-82
2022/12/16 04:10:02;;;;;;;7.80;4.20;;;-7.20;99.90;;;-6.62;100.00;97310.09;4999108;28;20559;-82
2022/12/16 04:29:21;;;;;;;4.03;2.90;;;-7.10;99.90;;;-6.70;100.00;97337.72;4997466;28;20486;-82
2022/12/16 04:31:52;;;;;;;5.13;3.50;;;-7.30;99.90;;;-6.72;100.00;97328.59;4997053;28;21007;-82
2022/12/16 04:34:24;;;;;;;7.30;4.00;;;-7.40;99.90;;;-6.75;100.00;97332.16;5000021;28;20551;-82
